Skip Navigation LinksHome page > Weather > Current weather Skip Navigation Links

Current Weather

Ben-Gurion Intl Apt, Tel Aviv, Israel

For information only: do not use for flight planning or navigation.
Latest weather
Observation time Saturday, July 23, 2016 3:50 PM IDT
Local time Saturday, July 23, 2016 4:04 PM IDT
Flight conditions Visual Meteorological Conditions
Winds
Wind direction West-Northwest (290°)
Winds variable from 260° to 320°
Wind speed 13 mph
Visibility 6.2 mi.
Sky condition
Ceiling unlimited
Cloud layer few clouds 4,000 ft.
Temperature 86°F
Dewpoint 64°F
Altimeter 29.80 in.Hg
Derived measurements
Relative humidity 49%
Heat index 88°F
Density altitude 2305 ft.
Remarks
No significant changes expected in the next two hours.
METAR LLBG 231250Z 29011KT 260V320 9999 FEW040 30/18 Q1009 NOSIG

Settings

Location code

InnerDrive.Weather 4.0.5722.1 Release CLR 4.0.30319.34209
Copyright ©2015 Inner Drive Technology. All rights reserved. Portions Copyright ©1986-2015 David Braverman.

Find weather

Site navigation


Skip Navigation Links

Place info

Page info

PayPal - The safer, easier way to pay online!

Return home.

Copyright ©2016 Inner Drive Technology. Purveyors of fine, hand-crafted computer software. Page printed 2016-07-23T13:04:19 UTC.